Time;durP1;ratioP1;P1;durP2;ratioP2;P2;SDS_P1;SDS_P2;PMS_P1;PMS_P2;Temp;Humidity;BMP_temperature;BMP_pressure;BME280_temperature;BME280_humidity;BME280_pressure;Samples;Min_cycle;Max_cycle;Signal;HPM_P1;HPM_P2
2023/03/16 00:00:38;;;;;;;;;;;;;;;1.94;39.02;92532.59;4955350;28;19910;-77
2023/03/16 00:03:03;;;;;;;;;;;;;;;1.93;38.84;92534.38;4954529;29;19926;-76
2023/03/16 00:05:29;;;;;;;;;;;;;;;1.91;38.68;92530.47;4968747;28;19941;-77
2023/03/16 00:07:54;;;;;;;;;;;;;;;1.92;38.50;92527.66;4971995;28;19918;-76
2023/03/16 00:10:25;;;;;;;;;;;;;;;1.83;39.05;92527.25;4973225;28;19917;-76
2023/03/16 00:12:52;;;;;;;;;;;;;;;1.80;38.58;92530.31;4973405;28;20004;-76
2023/03/16 00:15:18;;;;;;;;;;;;;;;1.77;38.74;92522.22;4974159;28;19917;-77
2023/03/16 00:17:47;;;;;;;;;;;;;;;1.78;38.98;92534.91;4986493;28;19918;-77
2023/03/16 00:20:13;;;;;;;;;;;;;;;1.76;38.69;92533.56;4973520;28;19914;-77
2023/03/16 00:22:38;;;;;;;;;;;;;;;1.72;38.61;92533.25;4974626;28;19918;-77
2023/03/16 00:25:04;;;;;;;;;;;;;;;1.72;38.53;92533.25;4974205;28;20360;-76
2023/03/16 00:27:29;;;;;;;;;;;;;;;1.72;38.45;92533.25;4972754;28;20211;-77
2023/03/16 00:29:55;;;;;;;;;;;;;;;1.71;38.42;92549.72;4973015;28;20060;-76
2023/03/16 00:32:25;;;;;;;;;;;;;;;1.68;38.35;92545.03;4973046;28;19957;-77
2023/03/16 00:34:50;;;;;;;;;;;;;;;1.68;38.79;92552.78;4973117;28;19914;-77
2023/03/16 00:37:17;;;;;;;;;;;;;;;1.67;38.80;92556.38;4971286;28;19921;-77
2023/03/16 00:39:42;;;;;;;;;;;;;;;1.67;38.56;92549.41;4972220;28;19984;-76
2023/03/16 00:42:12;;;;;;;;;;;;;;;1.67;39.25;92558.97;4957142;28;19920;-76
2023/03/16 00:44:38;;;;;;;;;;;;;;;1.66;38.80;92554.78;4972641;28;19937;-76
2023/03/16 00:47:05;;;;;;;;;;;;;;;1.64;39.15;92546.50;4960913;28;19918;-76
2023/03/16 00:49:33;;;;;;;;;;;;;;;1.62;39.17;92543.34;4972729;28;20443;-76
2023/03/16 00:52:00;;;;;;;;;;;;;;;1.61;38.87;92546.97;4972745;28;19918;-76
2023/03/16 00:54:25;;;;;;;;;;;;;;;1.61;39.75;92541.81;4973522;28;19933;-76
2023/03/16 00:56:51;;;;;;;;;;;;;;;1.70;39.48;92542.22;4970451;28;20356;-76
2023/03/16 00:59:18;;;;;;;;;;;;;;;1.70;39.91;92529.31;4967161;28;19930;-76
2023/03/16 01:01:45;;;;;;;;;;;;;;;1.69;39.15;92528.56;4976147;28;19913;-76
2023/03/16 01:04:11;;;;;;;;;;;;;;;1.68;39.38;92532.13;4965817;28;20013;-76
2023/03/16 01:06:36;;;;;;;;;;;;;;;1.69;39.39;92522.59;4973099;28;20009;-76
2023/03/16 01:09:04;;;;;;;;;;;;;;;1.66;40.00;92527.19;4972565;28;19920;-76
2023/03/16 01:11:32;;;;;;;;;;;;;;;1.65;39.03;92530.03;4971560;28;19918;-76
2023/03/16 01:13:58;;;;;;;;;;;;;;;1.67;38.23;92543.47;4972789;28;19921;-76
2023/03/16 01:16:24;;;;;;;;;;;;;;;1.68;38.89;92529.53;4973335;28;19918;-76
2023/03/16 01:18:51;;;;;;;;;;;;;;;1.67;39.07;92523.59;4964251;28;19942;-77
2023/03/16 01:21:16;;;;;;;;;;;;;;;1.69;38.84;92525.97;4969081;28;19941;-77
2023/03/16 01:23:43;;;;;;;;;;;;;;;1.68;38.39;92519.22;4952908;29;20511;-76
2023/03/16 01:26:08;;;;;;;;;;;;;;;1.66;40.44;92518.66;4952954;29;19914;-76
2023/03/16 01:28:34;;;;;;;;;;;;;;;1.63;39.69;92519.91;4953405;28;20005;-76
2023/03/16 01:31:05;;;;;;;;;;;;;;;1.61;40.20;92510.84;4972053;28;19914;-77
2023/03/16 01:33:32;;;;;;;;;;;;;;;1.58;39.46;92512.09;4967992;28;19968;-76
2023/03/16 01:36:00;;;;;;;;;;;;;;;1.57;39.49;92515.66;4977096;28;19960;-76
2023/03/16 01:38:29;;;;;;;;;;;;;;;1.58;39.53;92514.66;4971677;28;19918;-76
2023/03/16 01:40:55;;;;;;;;;;;;;;;1.60;40.28;92509.25;4971150;28;19914;-76
2023/03/16 01:43:22;;;;;;;;;;;;;;;1.56;40.54;92514.13;4967842;28;20284;-76
2023/03/16 01:46:06;;;;;;;;;;;;;;;1.55;40.61;92509.19;4968624;28;19922;-76
2023/03/16 01:48:41;;;;;;;;;;;;;;;1.52;40.16;92501.91;4953262;28;19921;-76
2023/03/16 01:51:09;;;;;;;;;;;;;;;1.50;39.85;92503.94;4973658;28;19997;-76
2023/03/16 01:53:35;;;;;;;;;;;;;;;1.47;39.52;92502.59;4962400;28;19957;-76
2023/03/16 01:56:04;;;;;;;;;;;;;;;1.47;39.62;92501.81;4969132;28;20020;-75
2023/03/16 01:58:30;;;;;;;;;;;;;;;1.44;39.09;92503.03;4987855;28;20339;-77
2023/03/16 02:00:57;;;;;;;;;;;;;;;1.43;38.38;92493.75;4969155;28;19914;-77
2023/03/16 02:03:23;;;;;;;;;;;;;;;1.47;39.14;92501.81;4971526;28;20264;-76
2023/03/16 02:06:05;;;;;;;;;;;;;;;1.42;39.61;92490.38;4971373;28;19914;-76
2023/03/16 02:08:33;;;;;;;;;;;;;;;1.40;39.54;92491.63;4971139;28;19992;-76
2023/03/16 02:10:59;;;;;;;;;;;;;;;1.35;40.19;92492.31;4967926;28;19918;-77
2023/03/16 02:13:37;;;;;;;;;;;;;;;1.33;40.52;92502.06;4971329;28;19924;-76
2023/03/16 02:16:05;;;;;;;;;;;;;;;1.29;41.23;92498.38;4968830;28;19948;-76
2023/03/16 02:18:30;;;;;;;;;;;;;;;1.26;40.10;92498.81;4955415;28;20038;-76
2023/03/16 02:20:56;;;;;;;;;;;;;;;1.28;40.54;92504.53;4953838;28;19926;-76
2023/03/16 02:23:23;;;;;;;;;;;;;;;1.27;40.56;92504.78;4957983;28;19914;-76
2023/03/16 02:25:55;;;;;;;;;;;;;;;1.25;40.71;92497.28;4971267;28;19981;-76
2023/03/16 02:28:22;;;;;;;;;;;;;;;1.21;40.77;92493.56;4985857;28;19922;-76
2023/03/16 02:30:48;;;;;;;;;;;;;;;1.19;39.98;92498.16;4970611;28;19965;-76
2023/03/16 02:33:15;;;;;;;;;;;;;;;1.18;40.61;92494.81;4984133;28;20017;-76
2023/03/16 02:35:42;;;;;;;;;;;;;;;1.14;41.12;92495.50;4971209;28;19918;-77
2023/03/16 02:38:08;;;;;;;;;;;;;;;1.11;40.96;92491.59;4969230;28;20421;-76
2023/03/16 02:40:42;;;;;;;;;;;;;;;1.11;41.71;92491.59;4971061;28;19918;-76
2023/03/16 02:43:16;;;;;;;;;;;;;;;1.07;42.29;92500.00;4977446;28;20016;-76
2023/03/16 02:45:55;;;;;;;;;;;;;;;1.03;42.23;92502.25;4971048;28;19914;-76
2023/03/16 02:48:31;;;;;;;;;;;;;;;0.99;42.48;92499.34;4975197;28;19928;-76
2023/03/16 02:50:57;;;;;;;;;;;;;;;0.96;42.38;92494.63;4951913;29;19914;-76
2023/03/16 02:53:22;;;;;;;;;;;;;;;0.92;41.75;92503.03;4962167;28;19966;-77
2023/03/16 02:55:48;;;;;;;;;;;;;;;0.91;41.25;92501.50;4978797;28;20288;-76
2023/03/16 02:58:14;;;;;;;;;;;;;;;0.90;40.88;92503.28;4954922;28;19926;-76
2023/03/16 03:00:41;;;;;;;;;;;;;;;0.92;41.04;92495.31;4980291;28;19922;-76
2023/03/16 03:03:08;;;;;;;;;;;;;;;0.93;40.76;92500.25;4968501;28;19964;-76
2023/03/16 03:05:33;;;;;;;;;;;;;;;0.96;40.46;92496.44;4972405;28;20509;-76
2023/03/16 03:07:59;;;;;;;;;;;;;;;0.98;40.91;92497.00;4970991;28;19922;-76
2023/03/16 03:10:25;;;;;;;;;;;;;;;0.96;41.36;92493.84;4970775;28;20297;-76
2023/03/16 03:12:51;;;;;;;;;;;;;;;0.93;42.00;92491.75;4969748;28;19925;-77
2023/03/16 03:15:17;;;;;;;;;;;;;;;0.91;41.46;92498.91;4969552;28;19922;-76
2023/03/16 03:17:52;;;;;;;;;;;;;;;0.88;41.86;92501.91;4956769;28;20395;-76
2023/03/16 03:20:19;;;;;;;;;;;;;;;0.87;42.00;92496.00;4974547;28;19918;-76
2023/03/16 03:22:45;;;;;;;;;;;;;;;0.86;42.78;92503.94;4974983;28;20269;-76
2023/03/16 03:25:13;;;;;;;;;;;;;;;0.84;42.70;92504.19;4973147;28;19922;-76
2023/03/16 03:27:39;;;;;;;;;;;;;;;0.84;42.13;92509.34;4974423;28;19921;-76
2023/03/16 03:30:12;;;;;;;;;;;;;;;0.83;42.02;92511.13;4974214;28;20356;-76
2023/03/16 03:32:38;;;;;;;;;;;;;;;0.85;41.66;92502.38;4990375;28;19914;-76
2023/03/16 03:35:04;;;;;;;;;;;;;;;0.84;42.25;92506.75;4969698;28;20410;-77
2023/03/16 03:37:30;;;;;;;;;;;;;;;0.83;42.17;92500.03;4987175;28;19963;-76
2023/03/16 03:39:56;;;;;;;;;;;;;;;0.84;42.36;92504.19;4954940;29;19946;-76
2023/03/16 03:42:22;;;;;;;;;;;;;;;0.83;43.45;92506.00;4954961;29;19918;-76
2023/03/16 03:44:50;;;;;;;;;;;;;;;0.82;42.90;92513.94;4969202;28;19922;-76
2023/03/16 03:47:15;;;;;;;;;;;;;;;0.81;42.48;92522.66;4956030;29;19953;-76
2023/03/16 03:49:41;;;;;;;;;;;;;;;0.79;42.22;92532.44;4938780;29;20357;-76
2023/03/16 03:52:06;;;;;;;;;;;;;;;0.78;41.99;92528.28;4964264;28;19914;-76
2023/03/16 03:54:32;;;;;;;;;;;;;;;0.77;41.18;92530.06;4969182;28;19977;-76
2023/03/16 03:57:03;;;;;;;;;;;;;;;0.78;41.28;92523.13;4986463;28;20391;-76
2023/03/16 03:59:28;;;;;;;;;;;;;;;0.78;41.29;92517.97;4954436;29;19954;-76
2023/03/16 04:02:13;;;;;;;;;;;;;;;0.73;42.56;92510.13;4954512;29;19918;-76
2023/03/16 04:04:47;;;;;;;;;;;;;;;0.79;42.86;92527.28;4950696;28;20013;-76
2023/03/16 04:07:13;;;;;;;;;;;;;;;0.77;43.45;92531.88;4965220;28;20364;-76
2023/03/16 04:09:40;;;;;;;;;;;;;;;0.75;43.43;92533.88;4973714;28;19910;-76
2023/03/16 04:12:09;;;;;;;;;;;;;;;0.75;43.81;92539.81;4973499;28;19925;-76
2023/03/16 04:14:35;;;;;;;;;;;;;;;0.77;43.80;92549.91;4972178;28;19968;-76
2023/03/16 04:17:04;;;;;;;;;;;;;;;0.76;42.89;92545.75;4971898;28;19917;-76
2023/03/16 04:19:30;;;;;;;;;;;;;;;0.74;42.75;92552.91;4957420;28;19918;-76
2023/03/16 04:21:56;;;;;;;;;;;;;;;0.74;43.05;92548.53;4974640;28;19989;-76
2023/03/16 04:24:21;;;;;;;;;;;;;;;0.71;43.96;92546.41;4972971;28;19925;-77
2023/03/16 04:26:47;;;;;;;;;;;;;;;0.69;44.30;92550.22;4968112;28;19918;-76
2023/03/16 04:29:13;;;;;;;;;;;;;;;0.67;43.67;92547.88;4972354;28;20372;-76
2023/03/16 04:31:39;;;;;;;;;;;;;;;0.66;43.68;92546.31;4974186;28;19917;-76
2023/03/16 04:34:07;;;;;;;;;;;;;;;0.66;44.34;92551.47;4970656;28;19953;-76
2023/03/16 04:36:32;;;;;;;;;;;;;;;0.65;43.51;92549.09;4955295;29;20364;-77
2023/03/16 04:38:59;;;;;;;;;;;;;;;0.62;43.02;92553.69;4970392;28;20013;-77
2023/03/16 04:41:25;;;;;;;;;;;;;;;0.63;43.11;92554.47;4973038;28;20436;-77
2023/03/16 04:43:58;;;;;;;;;;;;;;;0.62;43.08;92556.28;4972866;28;19918;-77
2023/03/16 04:46:25;;;;;;;;;;;;;;;0.61;42.91;92551.38;4969011;28;20372;-77
2023/03/16 04:48:52;;;;;;;;;;;;;;;0.61;43.26;92559.88;4960962;28;19914;-77
2023/03/16 04:51:18;;;;;;;;;;;;;;;0.61;43.93;92559.88;4937654;29;19921;-77
2023/03/16 04:53:55;;;;;;;;;;;;;;;0.60;43.69;92562.66;4939082;29;19982;-77
2023/03/16 04:56:27;;;;;;;;;;;;;;;0.56;44.06;92562.34;4948307;29;20369;-77
2023/03/16 04:58:57;;;;;;;;;;;;;;;0.52;44.47;92561.22;4960188;28;19922;-77
2023/03/16 05:01:28;;;;;;;;;;;;;;;0.48;45.05;92560.06;4972720;28;19924;-78
2023/03/16 05:03:56;;;;;;;;;;;;;;;0.47;45.31;92566.22;4972608;28;20368;-77
2023/03/16 05:06:22;;;;;;;;;;;;;;;0.46;45.29;92567.25;4954901;28;19921;-78
2023/03/16 05:08:48;;;;;;;;;;;;;;;0.46;44.86;92569.81;4953206;28;20226;-77
2023/03/16 05:11:14;;;;;;;;;;;;;;;0.44;44.31;92564.09;4963722;28;19929;-77
2023/03/16 05:13:49;;;;;;;;;;;;;;;0.44;44.51;92568.47;4969507;28;19929;-77
2023/03/16 05:16:14;;;;;;;;;;;;;;;0.44;43.66;92568.47;4964090;28;19922;-77
2023/03/16 05:18:40;;;;;;;;;;;;;;;0.42;43.93;92563.53;4972225;28;20389;-77
2023/03/16 05:21:06;;;;;;;;;;;;;;;0.41;44.36;92565.34;4965691;28;20348;-77
2023/03/16 05:23:54;;;;;;;;;;;;;;;0.40;44.80;92568.13;4972493;28;19917;-77
2023/03/16 05:26:19;;;;;;;;;;;;;;;0.39;44.77;92567.34;4970383;28;20012;-78
2023/03/16 05:28:45;;;;;;;;;;;;;;;0.39;44.38;92564.75;4980367;28;19933;-77
2023/03/16 05:31:15;;;;;;;;;;;;;;;0.39;44.19;92569.91;4959362;28;19925;-79
2023/03/16 05:33:47;;;;;;;;;;;;;;;0.39;44.94;92574.28;4970701;28;19926;-77
2023/03/16 05:36:16;;;;;;;;;;;;;;;0.38;45.57;92568.34;4967643;28;19973;-78
2023/03/16 05:38:44;;;;;;;;;;;;;;;0.38;45.70;92570.13;4970875;28;19926;-80
2023/03/16 05:41:17;;;;;;;;;;;;;;;0.40;44.55;92574.03;4973410;28;19922;-79
2023/03/16 05:43:53;;;;;;;;;;;;;;;0.46;44.56;92576.75;4973394;28;20344;-80
2023/03/16 05:46:21;;;;;;;;;;;;;;;0.49;44.68;92579.66;4972074;28;19918;-80
2023/03/16 05:48:48;;;;;;;;;;;;;;;0.52;44.39;92584.41;4959745;28;19914;-81
2023/03/16 05:51:14;;;;;;;;;;;;;;;0.75;44.51;92586.19;4981388;28;19925;-80
2023/03/16 05:53:41;;;;;;;;;;;;;;;0.98;43.95;92589.78;4977623;28;19972;-79
2023/03/16 05:56:15;;;;;;;;;;;;;;;0.98;43.46;92590.56;4974258;28;19920;-80
2023/03/16 05:58:47;;;;;;;;;;;;;;;1.11;43.30;92596.53;4968463;28;19929;-78
2023/03/16 06:01:14;;;;;;;;;;;;;;;1.36;42.37;92601.44;4950089;28;19942;-80
2023/03/16 06:03:41;;;;;;;;;;;;;;;1.65;42.76;92600.47;4971779;28;20001;-79
2023/03/16 06:06:09;;;;;;;;;;;;;;;2.21;42.34;92603.31;4982811;28;19998;-80
2023/03/16 06:08:49;;;;;;;;;;;;;;;2.76;42.29;92607.06;4972708;28;20361;-80
2023/03/16 06:11:16;;;;;;;;;;;;;;;3.39;40.59;92606.94;4977248;28;20335;-81
2023/03/16 06:13:44;;;;;;;;;;;;;;;4.19;38.89;92610.72;4972921;28;19918;-80
2023/03/16 06:16:12;;;;;;;;;;;;;;;4.85;38.30;92607.19;4958201;29;20364;-79
2023/03/16 06:18:39;;;;;;;;;;;;;;;5.42;36.30;92611.72;4942441;29;19970;-79
2023/03/16 06:21:05;;;;;;;;;;;;;;;5.95;35.39;92609.16;4988243;28;19922;-80
2023/03/16 06:23:32;;;;;;;;;;;;;;;6.79;34.15;92613.25;4993216;28;19960;-80
2023/03/16 06:25:59;;;;;;;;;;;;;;;7.60;33.02;92611.63;4971349;28;19930;-79
2023/03/16 06:28:26;;;;;;;;;;;;;;;8.12;31.76;92613.03;4963569;28;19965;-79
2023/03/16 06:30:53;;;;;;;;;;;;;;;8.73;31.04;92619.00;4951304;28;19918;-80
2023/03/16 06:33:19;;;;;;;;;;;;;;;9.30;30.02;92619.38;4959206;28;19922;-78
2023/03/16 06:35:46;;;;;;;;;;;;;;;9.73;29.75;92622.13;4966018;28;20411;-80
2023/03/16 06:38:18;;;;;;;;;;;;;;;10.36;27.90;92619.34;4957825;28;20506;-79
2023/03/16 06:41:00;;;;;;;;;;;;;;;11.00;28.39;92616.38;4972467;28;19918;-80
2023/03/16 06:43:26;;;;;;;;;;;;;;;11.37;27.05;92626.03;4988229;28;19924;-80
2023/03/16 06:45:52;;;;;;;;;;;;;;;11.69;27.01;92626.31;4959400;28;20351;-80
2023/03/16 06:48:18;;;;;;;;;;;;;;;12.13;26.47;92636.28;4955391;28;19921;-80
2023/03/16 06:50:44;;;;;;;;;;;;;;;12.53;26.32;92631.31;4968455;28;19922;-78
2023/03/16 06:53:10;;;;;;;;;;;;;;;12.86;25.55;92631.16;4952770;28;19910;-81
2023/03/16 06:55:36;;;;;;;;;;;;;;;13.04;25.80;92637.34;4975607;28;19923;-81
2023/03/16 06:58:01;;;;;;;;;;;;;;;13.27;25.57;92640.75;4978388;28;20021;-81
2023/03/16 07:00:27;;;;;;;;;;;;;;;13.65;26.11;92643.03;4978369;28;19914;-81
2023/03/16 07:02:52;;;;;;;;;;;;;;;14.04;25.30;92644.16;4975385;28;19918;-80
2023/03/16 07:05:19;;;;;;;;;;;;;;;14.29;24.88;92646.09;4993462;28;20292;-80
2023/03/16 07:07:46;;;;;;;;;;;;;;;14.39;25.43;92639.81;4952724;29;20284;-81
2023/03/16 07:10:13;;;;;;;;;;;;;;;15.06;23.87;92651.88;4989112;28;20017;-81
2023/03/16 07:12:39;;;;;;;;;;;;;;;16.01;20.20;92653.69;4947224;28;19913;-81
2023/03/16 07:15:05;;;;;;;;;;;;;;;16.31;21.88;92653.72;4960778;28;19914;-81
2023/03/16 07:17:31;;;;;;;;;;;;;;;15.37;23.54;92661.50;4973919;28;19918;-81
2023/03/16 07:19:57;;;;;;;;;;;;;;;16.59;23.14;92658.56;4987479;28;20328;-81
2023/03/16 07:22:22;;;;;;;;;;;;;;;16.73;22.71;92663.63;4961940;28;19965;-81
2023/03/16 07:24:55;;;;;;;;;;;;;;;17.27;21.95;92669.09;4977489;28;19929;-81
2023/03/16 07:27:22;;;;;;;;;;;;;;;16.17;23.09;92666.38;4978124;28;20335;-81
2023/03/16 07:29:48;;;;;;;;;;;;;;;16.09;23.21;92673.22;4978045;28;19913;-81
2023/03/16 07:32:14;;;;;;;;;;;;;;;15.39;23.39;92678.56;4977433;28;20375;-81
2023/03/16 07:34:40;;;;;;;;;;;;;;;15.23;24.50;92679.34;4988279;28;19918;-80
2023/03/16 07:37:07;;;;;;;;;;;;;;;14.62;24.61;92687.94;4977851;28;20009;-80
2023/03/16 07:39:33;;;;;;;;;;;;;;;14.24;25.58;92688.38;4975349;28;20508;-80
2023/03/16 07:42:07;;;;;;;;;;;;;;;13.24;26.72;92693.91;4975972;28;19914;-80
2023/03/16 07:45:02;;;;;;;;;;;;;;;12.41;27.13;92696.66;4954525;28;19933;-80
2023/03/16 07:47:30;;;;;;;;;;;;;;;11.52;28.80;92690.53;4978901;28;19914;-80
2023/03/16 07:50:00;;;;;;;;;;;;;;;10.57;30.50;92705.47;4977949;28;19910;-80
2023/03/16 07:52:26;;;;;;;;;;;;;;;9.68;31.69;92700.56;4978828;28;19918;-80
2023/03/16 07:54:51;;;;;;;;;;;;;;;9.63;33.02;92705.84;4954249;28;19944;-79
2023/03/16 07:57:17;;;;;;;;;;;;;;;9.28;32.46;92711.09;4945105;29;20400;-79
2023/03/16 07:59:43;;;;;;;;;;;;;;;8.98;32.51;92717.25;4966299;28;20288;-79
2023/03/16 08:02:15;;;;;;;;;;;;;;;8.75;34.52;92708.25;4940529;29;20425;-79
2023/03/16 08:04:41;;;;;;;;;;;;;;;8.72;33.53;92714.78;4953230;28;20224;-80
2023/03/16 08:07:08;;;;;;;;;;;;;;;8.69;33.72;92717.97;4926432;29;19914;-78
2023/03/16 08:09:47;;;;;;;;;;;;;;;8.85;34.04;92726.50;4950977;29;19937;-79
2023/03/16 08:12:17;;;;;;;;;;;;;;;9.17;32.82;92738.31;4970664;28;19925;-79
2023/03/16 08:14:45;;;;;;;;;;;;;;;9.15;32.34;92740.41;4954945;29;19918;-79
2023/03/16 08:17:17;;;;;;;;;;;;;;;9.32;32.02;92745.25;4966993;28;19922;-79
2023/03/16 08:19:44;;;;;;;;;;;;;;;9.49;29.84;92752.75;4957694;29;20304;-79
2023/03/16 08:22:11;;;;;;;;;;;;;;;9.16;28.31;92753.22;4958671;29;20352;-79
2023/03/16 08:24:41;;;;;;;;;;;;;;;8.88;30.57;92759.09;4955299;29;19919;-79
2023/03/16 08:27:08;;;;;;;;;;;;;;;8.59;32.56;92759.75;4959086;29;19925;-79
2023/03/16 08:29:36;;;;;;;;;;;;;;;8.21;32.25;92753.28;4959043;29;19918;-78
2023/03/16 08:32:04;;;;;;;;;;;;;;;8.01;34.68;92760.09;4957443;28;19942;-79
2023/03/16 08:34:38;;;;;;;;;;;;;;;8.01;34.96;92761.94;4959004;29;20021;-79
2023/03/16 08:37:05;;;;;;;;;;;;;;;7.86;35.40;92765.34;4958330;29;19927;-79
2023/03/16 08:39:31;;;;;;;;;;;;;;;7.87;33.82;92761.69;4955414;29;19922;-79
2023/03/16 08:41:56;;;;;;;;;;;;;;;7.71;35.75;92763.53;4943290;29;19918;-79
2023/03/16 08:44:28;;;;;;;;;;;;;;;7.72;33.14;92770.28;4953862;29;19922;-78
2023/03/16 08:46:54;;;;;;;;;;;;;;;7.35;33.83;92770.53;4952228;29;19922;-79
2023/03/16 08:49:20;;;;;;;;;;;;;;;7.44;32.17;92769.75;4948473;29;19969;-79
2023/03/16 08:51:49;;;;;;;;;;;;;;;7.41;32.96;92759.09;4958402;29;19918;-79
2023/03/16 08:54:14;;;;;;;;;;;;;;;7.32;33.23;92771.84;4959340;28;19957;-79
2023/03/16 08:56:40;;;;;;;;;;;;;;;7.58;35.32;92770.03;4958404;29;19914;-79
2023/03/16 08:59:05;;;;;;;;;;;;;;;7.54;32.58;92763.78;4941904;29;19957;-81
2023/03/16 09:01:31;;;;;;;;;;;;;;;7.71;32.23;92763.53;4959272;29;19927;-79
2023/03/16 09:03:56;;;;;;;;;;;;;;;7.81;32.06;92768.72;4957860;29;19918;-81
2023/03/16 09:06:23;;;;;;;;;;;;;;;7.65;30.99;92769.78;4958284;28;19918;-80
2023/03/16 09:08:48;;;;;;;;;;;;;;;7.89;31.89;92765.59;4945560;29;19918;-79
2023/03/16 09:11:15;;;;;;;;;;;;;;;8.14;32.73;92770.00;4956438;29;19933;-80
2023/03/16 09:13:41;;;;;;;;;;;;;;;8.05;32.01;92768.97;4957924;29;20024;-80
2023/03/16 09:16:08;;;;;;;;;;;;;;;8.06;31.48;92780.97;4957789;28;19929;-79
2023/03/16 09:18:34;;;;;;;;;;;;;;;8.00;30.13;92778.63;4957394;29;20376;-80
2023/03/16 09:21:01;;;;;;;;;;;;;;;7.86;31.41;92779.16;4959276;29;19914;-80
2023/03/16 09:23:28;;;;;;;;;;;;;;;8.13;31.17;92771.06;4957639;29;20312;-80
2023/03/16 09:25:58;;;;;;;;;;;;;;;8.27;31.45;92770.50;4960199;28;20147;-80
2023/03/16 09:28:26;;;;;;;;;;;;;;;8.65;32.03;92770.97;4950263;28;19958;-80
2023/03/16 09:30:52;;;;;;;;;;;;;;;8.62;30.58;92771.47;4944144;29;20277;-79
2023/03/16 09:33:17;;;;;;;;;;;;;;;8.65;31.53;92776.16;4973294;28;20375;-79
2023/03/16 09:35:43;;;;;;;;;;;;;;;8.63;32.49;92784.25;4959095;29;19918;-80
2023/03/16 09:38:10;;;;;;;;;;;;;;;8.30;30.32;92775.19;4958076;28;19914;-79
2023/03/16 09:40:36;;;;;;;;;;;;;;;8.50;32.03;92772.53;4957994;29;19953;-80
2023/03/16 09:43:20;;;;;;;;;;;;;;;8.55;31.00;92776.97;4958559;28;19944;-79
2023/03/16 09:45:51;;;;;;;;;;;;;;;8.55;31.24;92784.78;4951600;29;20377;-80
2023/03/16 09:48:17;;;;;;;;;;;;;;;8.67;33.25;92785.28;4950889;29;20038;-80
2023/03/16 09:50:43;;;;;;;;;;;;;;;9.13;32.98;92784.31;4958449;29;19925;-81
2023/03/16 09:53:12;;;;;;;;;;;;;;;9.04;31.05;92788.53;4940730;29;19914;-79
2023/03/16 09:55:38;;;;;;;;;;;;;;;9.00;30.36;92788.28;4953756;29;19919;-80
2023/03/16 09:58:10;;;;;;;;;;;;;;;9.60;32.24;92780.38;4938319;29;19919;-79
2023/03/16 10:00:40;;;;;;;;;;;;;;;9.46;31.46;92784.66;4958627;28;19929;-80
2023/03/16 10:03:20;;;;;;;;;;;;;;;9.50;30.98;92775.19;4958554;28;19914;-80
2023/03/16 10:05:48;;;;;;;;;;;;;;;9.12;32.35;92775.69;4940527;29;19962;-79
2023/03/16 10:08:43;;;;;;;;;;;;;;;9.30;32.26;92778.72;4957351;29;20389;-79
2023/03/16 10:11:23;;;;;;;;;;;;;;;9.24;32.55;92785.81;4953538;29;19961;-79
2023/03/16 10:14:03;;;;;;;;;;;;;;;9.26;32.32;92781.09;4957995;28;20400;-79
2023/03/16 10:16:33;;;;;;;;;;;;;;;9.47;32.15;92786.19;4957726;29;20336;-79
2023/03/16 10:19:01;;;;;;;;;;;;;;;9.50;32.46;92785.66;4958670;28;19919;-80
2023/03/16 10:21:30;;;;;;;;;;;;;;;9.46;32.49;92782.03;4964681;28;19922;-80
2023/03/16 10:23:57;;;;;;;;;;;;;;;9.60;30.43;92785.59;4956626;29;19918;-80
2023/03/16 10:26:27;;;;;;;;;;;;;;;9.56;32.40;92782.72;4957159;29;19918;-79
2023/03/16 10:28:53;;;;;;;;;;;;;;;9.62;32.56;92782.72;4956950;29;19926;-78
2023/03/16 10:31:22;;;;;;;;;;;;;;;9.91;32.83;92785.38;4973153;28;19945;-78
2023/03/16 10:33:49;;;;;;;;;;;;;;;9.76;32.14;92789.66;4954212;28;19911;-80
2023/03/16 10:36:23;;;;;;;;;;;;;;;9.42;31.38;92789.63;4947492;29;19918;-80
2023/03/16 10:38:54;;;;;;;;;;;;;;;9.66;31.96;92781.09;4955441;29;19922;-79
2023/03/16 10:41:22;;;;;;;;;;;;;;;9.65;32.82;92777.72;4957229;29;19914;-80
2023/03/16 10:44:00;;;;;;;;;;;;;;;9.71;32.03;92776.63;4957964;29;19918;-80
2023/03/16 10:46:27;;;;;;;;;;;;;;;9.83;31.40;92778.13;4950705;28;19915;-80
2023/03/16 10:48:53;;;;;;;;;;;;;;;10.16;31.03;92785.16;4957239;29;20009;-79
2023/03/16 10:51:24;;;;;;;;;;;;;;;10.32;31.24;92787.66;4958218;29;20316;-79
2023/03/16 10:53:50;;;;;;;;;;;;;;;10.24;31.09;92778.53;4951169;28;19945;-80
2023/03/16 10:56:21;;;;;;;;;;;;;;;10.10;32.38;92791.47;4953850;29;19923;-79
2023/03/16 10:58:47;;;;;;;;;;;;;;;9.96;32.57;92785.31;4942953;29;19922;-79
2023/03/16 11:01:20;;;;;;;;;;;;;;;10.12;32.03;92784.13;4953081;29;19914;-79
2023/03/16 11:03:50;;;;;;;;;;;;;;;10.56;31.64;92785.84;4937207;29;19915;-80
2023/03/16 11:06:21;;;;;;;;;;;;;;;10.58;31.50;92786.34;4940888;29;19921;-79
2023/03/16 11:08:47;;;;;;;;;;;;;;;10.40;31.37;92782.59;4955784;29;19914;-79
2023/03/16 11:11:15;;;;;;;;;;;;;;;10.54;32.35;92784.56;4956874;28;19925;-81
2023/03/16 11:13:45;;;;;;;;;;;;;;;10.55;32.16;92783.50;4955012;29;19922;-81
2023/03/16 11:16:23;;;;;;;;;;;;;;;10.85;32.67;92779.75;4957080;28;19922;-81
2023/03/16 11:18:59;;;;;;;;;;;;;;;11.07;31.33;92773.22;4956569;29;20273;-80
2023/03/16 11:21:45;;;;;;;;;;;;;;;10.97;30.77;92772.28;4955385;29;19973;-80
2023/03/16 11:24:22;;;;;;;;;;;;;;;10.83;31.35;92774.81;4952497;29;19996;-79
2023/03/16 11:26:53;;;;;;;;;;;;;;;10.99;30.00;92775.41;4956831;29;19914;-79
2023/03/16 11:29:23;;;;;;;;;;;;;;;10.50;30.64;92767.84;4955494;29;19969;-80
2023/03/16 11:31:59;;;;;;;;;;;;;;;10.47;31.71;92771.81;4956263;28;20369;-81
2023/03/16 11:34:27;;;;;;;;;;;;;;;10.89;32.19;92778.13;4957646;29;20025;-80
2023/03/16 11:37:00;;;;;;;;;;;;;;;10.82;30.82;92777.69;4958036;29;20000;-79
2023/03/16 11:39:39;;;;;;;;;;;;;;;10.83;30.88;92769.56;4960381;28;20017;-79
2023/03/16 11:42:34;;;;;;;;;;;;;;;10.82;31.73;92764.59;4962677;28;20017;-79
2023/03/16 11:45:04;;;;;;;;;;;;;;;10.76;31.06;92770.94;4938841;29;19914;-79
2023/03/16 11:47:35;;;;;;;;;;;;;;;10.88;31.02;92768.72;4961758;28;19918;-80
2023/03/16 11:50:14;;;;;;;;;;;;;;;10.90;30.13;92773.66;4951734;29;19978;-79
2023/03/16 11:52:56;;;;;;;;;;;;;;;10.64;30.90;92760.88;4943321;29;19954;-79
2023/03/16 11:55:22;;;;;;;;;;;;;;;10.68;30.57;92774.19;4930896;29;19923;-78
2023/03/16 11:57:48;;;;;;;;;;;;;;;10.74;31.16;92770.44;4964555;28;19921;-79
2023/03/16 12:00:22;;;;;;;;;;;;;;;10.71;30.27;92765.78;4960809;29;20293;-80
2023/03/16 12:02:52;;;;;;;;;;;;;;;10.75;30.34;92753.69;4961736;29;19918;-80
2023/03/16 12:05:31;;;;;;;;;;;;;;;10.61;31.25;92770.06;4958947;29;20407;-79
2023/03/16 12:08:11;;;;;;;;;;;;;;;10.66;30.39;92761.38;4959916;28;20022;-79
2023/03/16 12:10:50;;;;;;;;;;;;;;;10.74;31.74;92755.53;4942896;29;19914;-79
2023/03/16 12:13:29;;;;;;;;;;;;;;;10.87;31.09;92756.69;4943007;29;20258;-80
2023/03/16 12:16:14;;;;;;;;;;;;;;;11.06;31.19;92755.94;4954588;29;19915;-79
2023/03/16 12:18:56;;;;;;;;;;;;;;;10.87;30.24;92753.28;4962229;29;19918;-79
2023/03/16 12:21:37;;;;;;;;;;;;;;;10.92;31.07;92745.34;4961787;29;19921;-79
2023/03/16 12:24:05;;;;;;;;;;;;;;;11.18;29.86;92743.19;4961571;29;19937;-78
2023/03/16 12:26:34;;;;;;;;;;;;;;;11.33;30.37;92736.97;4959597;29;19919;-79
2023/03/16 12:29:02;;;;;;;;;;;;;;;11.11;30.52;92722.59;4962170;28;20415;-79
2023/03/16 12:31:52;;;;;;;;;;;;;;;11.07;29.36;92726.81;4962457;28;19973;-78
2023/03/16 12:34:39;;;;;;;;;;;;;;;11.03;29.93;92736.31;4956750;28;19922;-79
2023/03/16 12:37:11;;;;;;;;;;;;;;;10.96;30.45;92715.69;4953593;29;19918;-79
2023/03/16 12:39:40;;;;;;;;;;;;;;;11.10;31.33;92721.03;4961070;29;20257;-79
2023/03/16 12:42:19;;;;;;;;;;;;;;;11.22;31.25;92718.00;4959536;29;19922;-79
2023/03/16 12:44:47;;;;;;;;;;;;;;;11.03;30.29;92710.91;4961270;29;19918;-78
2023/03/16 12:47:26;;;;;;;;;;;;;;;11.18;30.02;92717.00;4948581;29;20033;-79
2023/03/16 12:49:51;;;;;;;;;;;;;;;11.26;30.42;92708.50;4959844;29;19921;-78
2023/03/16 12:52:17;;;;;;;;;;;;;;;11.00;29.96;92711.47;4972078;28;19918;-78
2023/03/16 12:54:50;;;;;;;;;;;;;;;11.15;30.92;92717.56;4955212;29;20600;-80
2023/03/16 12:57:16;;;;;;;;;;;;;;;11.17;31.64;92710.22;4934174;29;19918;-78
2023/03/16 12:59:50;;;;;;;;;;;;;;;11.34;32.03;92707.06;4940829;29;19993;-78
2023/03/16 13:02:19;;;;;;;;;;;;;;;10.74;31.55;92703.16;4951303;29;19914;-78
2023/03/16 13:04:48;;;;;;;;;;;;;;;10.46;31.71;92709.25;4955849;29;19918;-78